sensor_id;sensor_type;location;lat;lon;timestamp;P1;durP1;ratioP1;P2;durP2;ratioP2
78778;SDS011;68121;52.404;5.318;2023-10-13T00:00:38;10.90;;;6.95;;
78778;SDS011;68121;52.404;5.318;2023-10-13T00:03:07;12.95;;;6.07;;
78778;SDS011;68121;52.404;5.318;2023-10-13T00:05:40;15.23;;;6.82;;
78778;SDS011;68121;52.404;5.318;2023-10-13T00:08:08;13.23;;;6.00;;
78778;SDS011;68121;52.404;5.318;2023-10-13T00:10:35;16.55;;;6.60;;
78778;SDS011;68121;52.404;5.318;2023-10-13T00:13:02;15.15;;;7.38;;
78778;SDS011;68121;52.404;5.318;2023-10-13T00:15:41;15.60;;;6.75;;
78778;SDS011;68121;52.404;5.318;2023-10-13T00:18:24;16.27;;;7.53;;
78778;SDS011;68121;52.404;5.318;2023-10-13T00:21:08;13.38;;;5.78;;
78778;SDS011;68121;52.404;5.318;2023-10-13T00:23:53;13.45;;;7.07;;
78778;SDS011;68121;52.404;5.318;2023-10-13T00:26:19;12.55;;;6.75;;
78778;SDS011;68121;52.404;5.318;2023-10-13T00:28:57;15.18;;;7.43;;
78778;SDS011;68121;52.404;5.318;2023-10-13T00:31:33;14.90;;;7.10;;
78778;SDS011;68121;52.404;5.318;2023-10-13T00:34:04;14.90;;;6.47;;
78778;SDS011;68121;52.404;5.318;2023-10-13T00:36:44;13.45;;;6.22;;
78778;SDS011;68121;52.404;5.318;2023-10-13T00:39:29;12.63;;;7.18;;
78778;SDS011;68121;52.404;5.318;2023-10-13T00:41:55;12.27;;;6.35;;
78778;SDS011;68121;52.404;5.318;2023-10-13T00:44:31;12.55;;;7.00;;
78778;SDS011;68121;52.404;5.318;2023-10-13T00:47:04;14.90;;;6.82;;
78778;SDS011;68121;52.404;5.318;2023-10-13T00:49:33;12.82;;;6.95;;
78778;SDS011;68121;52.404;5.318;2023-10-13T00:52:08;13.15;;;6.72;;
78778;SDS011;68121;52.404;5.318;2023-10-13T00:54:36;15.55;;;6.47;;
78778;SDS011;68121;52.404;5.318;2023-10-13T00:57:03;14.05;;;7.43;;
78778;SDS011;68121;52.404;5.318;2023-10-13T00:59:52;14.27;;;6.35;;
78778;SDS011;68121;52.404;5.318;2023-10-13T01:02:22;10.27;;;6.65;;
78778;SDS011;68121;52.404;5.318;2023-10-13T01:05:07;8.65;;;5.72;;
78778;SDS011;68121;52.404;5.318;2023-10-13T01:07:37;12.98;;;6.68;;
78778;SDS011;68121;52.404;5.318;2023-10-13T01:10:03;12.57;;;6.55;;
78778;SDS011;68121;52.404;5.318;2023-10-13T01:12:30;15.35;;;6.70;;
78778;SDS011;68121;52.404;5.318;2023-10-13T01:14:56;13.13;;;6.40;;
78778;SDS011;68121;52.404;5.318;2023-10-13T01:17:25;11.30;;;5.30;;
78778;SDS011;68121;52.404;5.318;2023-10-13T01:19:57;11.00;;;5.70;;
78778;SDS011;68121;52.404;5.318;2023-10-13T01:22:24;12.23;;;5.72;;
78778;SDS011;68121;52.404;5.318;2023-10-13T01:24:50;8.63;;;4.88;;
78778;SDS011;68121;52.404;5.318;2023-10-13T01:27:16;7.55;;;4.93;;
78778;SDS011;68121;52.404;5.318;2023-10-13T01:29:43;11.02;;;5.60;;
78778;SDS011;68121;52.404;5.318;2023-10-13T01:32:18;15.65;;;5.85;;
78778;SDS011;68121;52.404;5.318;2023-10-13T01:34:45;9.90;;;5.28;;
78778;SDS011;68121;52.404;5.318;2023-10-13T01:37:12;11.88;;;6.45;;
78778;SDS011;68121;52.404;5.318;2023-10-13T01:39:38;11.90;;;5.53;;
78778;SDS011;68121;52.404;5.318;2023-10-13T01:42:04;10.80;;;5.07;;
78778;SDS011;68121;52.404;5.318;2023-10-13T01:44:31;9.15;;;5.15;;
78778;SDS011;68121;52.404;5.318;2023-10-13T01:46:58;9.95;;;5.60;;
78778;SDS011;68121;52.404;5.318;2023-10-13T01:49:32;12.70;;;6.03;;
78778;SDS011;68121;52.404;5.318;2023-10-13T01:52:11;10.93;;;5.45;;
78778;SDS011;68121;52.404;5.318;2023-10-13T01:54:44;13.38;;;6.35;;
78778;SDS011;68121;52.404;5.318;2023-10-13T01:57:11;11.65;;;6.53;;
78778;SDS011;68121;52.404;5.318;2023-10-13T01:59:43;11.93;;;6.65;;
78778;SDS011;68121;52.404;5.318;2023-10-13T02:02:11;13.18;;;6.70;;
78778;SDS011;68121;52.404;5.318;2023-10-13T02:04:41;13.50;;;7.18;;
78778;SDS011;68121;52.404;5.318;2023-10-13T02:07:22;14.23;;;7.32;;
78778;SDS011;68121;52.404;5.318;2023-10-13T02:09:58;13.82;;;7.22;;
78778;SDS011;68121;52.404;5.318;2023-10-13T02:12:24;16.83;;;8.05;;
78778;SDS011;68121;52.404;5.318;2023-10-13T02:15:13;13.38;;;6.95;;
78778;SDS011;68121;52.404;5.318;2023-10-13T02:20:20;14.23;;;6.82;;
78778;SDS011;68121;52.404;5.318;2023-10-13T02:22:51;16.77;;;7.93;;
78778;SDS011;68121;52.404;5.318;2023-10-13T02:25:20;15.75;;;7.95;;
78778;SDS011;68121;52.404;5.318;2023-10-13T02:30:37;15.20;;;7.53;;
78778;SDS011;68121;52.404;5.318;2023-10-13T02:33:04;11.68;;;6.43;;
78778;SDS011;68121;52.404;5.318;2023-10-13T02:35:32;12.90;;;7.05;;
78778;SDS011;68121;52.404;5.318;2023-10-13T02:38:07;15.82;;;7.22;;
78778;SDS011;68121;52.404;5.318;2023-10-13T02:40:37;13.10;;;6.82;;
78778;SDS011;68121;52.404;5.318;2023-10-13T02:43:04;14.82;;;7.20;;
78778;SDS011;68121;52.404;5.318;2023-10-13T02:45:33;11.50;;;6.90;;
78778;SDS011;68121;52.404;5.318;2023-10-13T02:48:03;15.48;;;7.28;;
78778;SDS011;68121;52.404;5.318;2023-10-13T02:50:39;14.40;;;6.07;;
78778;SDS011;68121;52.404;5.318;2023-10-13T02:53:09;12.02;;;6.40;;
78778;SDS011;68121;52.404;5.318;2023-10-13T02:55:51;15.40;;;7.10;;
78778;SDS011;68121;52.404;5.318;2023-10-13T02:58:18;13.68;;;6.88;;
78778;SDS011;68121;52.404;5.318;2023-10-13T03:00:44;12.68;;;6.50;;
78778;SDS011;68121;52.404;5.318;2023-10-13T03:03:12;10.52;;;5.95;;
78778;SDS011;68121;52.404;5.318;2023-10-13T03:05:41;12.77;;;5.30;;
78778;SDS011;68121;52.404;5.318;2023-10-13T03:08:08;12.00;;;6.43;;
78778;SDS011;68121;52.404;5.318;2023-10-13T03:10:36;13.32;;;6.28;;
78778;SDS011;68121;52.404;5.318;2023-10-13T03:13:10;9.90;;;5.93;;
78778;SDS011;68121;52.404;5.318;2023-10-13T03:15:36;12.52;;;5.68;;
78778;SDS011;68121;52.404;5.318;2023-10-13T03:18:02;12.20;;;5.97;;
78778;SDS011;68121;52.404;5.318;2023-10-13T03:20:29;14.07;;;6.10;;
78778;SDS011;68121;52.404;5.318;2023-10-13T03:22:58;10.70;;;5.60;;
78778;SDS011;68121;52.404;5.318;2023-10-13T03:25:24;14.27;;;6.60;;
78778;SDS011;68121;52.404;5.318;2023-10-13T03:27:53;9.07;;;5.30;;
78778;SDS011;68121;52.404;5.318;2023-10-13T03:30:20;14.50;;;6.25;;
78778;SDS011;68121;52.404;5.318;2023-10-13T03:32:47;9.07;;;4.60;;
78778;SDS011;68121;52.404;5.318;2023-10-13T03:35:20;7.07;;;4.55;;
78778;SDS011;68121;52.404;5.318;2023-10-13T03:37:50;11.77;;;5.00;;
78778;SDS011;68121;52.404;5.318;2023-10-13T03:40:17;10.20;;;5.53;;
78778;SDS011;68121;52.404;5.318;2023-10-13T03:42:46;9.38;;;4.93;;
78778;SDS011;68121;52.404;5.318;2023-10-13T03:45:30;9.85;;;4.85;;
78778;SDS011;68121;52.404;5.318;2023-10-13T03:48:08;9.25;;;5.35;;
78778;SDS011;68121;52.404;5.318;2023-10-13T03:50:37;12.35;;;5.50;;
78778;SDS011;68121;52.404;5.318;2023-10-13T03:53:15;13.70;;;5.93;;
78778;SDS011;68121;52.404;5.318;2023-10-13T03:55:41;13.18;;;5.90;;
78778;SDS011;68121;52.404;5.318;2023-10-13T03:58:14;12.07;;;6.47;;
78778;SDS011;68121;52.404;5.318;2023-10-13T04:00:42;13.68;;;6.68;;
78778;SDS011;68121;52.404;5.318;2023-10-13T04:03:08;15.45;;;7.95;;
78778;SDS011;68121;52.404;5.318;2023-10-13T04:05:35;16.23;;;7.03;;
78778;SDS011;68121;52.404;5.318;2023-10-13T04:08:04;8.18;;;5.07;;
78778;SDS011;68121;52.404;5.318;2023-10-13T04:10:51;10.60;;;4.90;;
78778;SDS011;68121;52.404;5.318;2023-10-13T04:13:17;9.00;;;4.50;;
78778;SDS011;68121;52.404;5.318;2023-10-13T04:16:03;10.75;;;5.13;;
78778;SDS011;68121;52.404;5.318;2023-10-13T04:18:48;8.32;;;4.18;;
78778;SDS011;68121;52.404;5.318;2023-10-13T04:21:23;7.15;;;4.07;;
78778;SDS011;68121;52.404;5.318;2023-10-13T04:24:05;8.30;;;4.40;;
78778;SDS011;68121;52.404;5.318;2023-10-13T04:26:49;7.95;;;3.78;;
78778;SDS011;68121;52.404;5.318;2023-10-13T04:29:35;7.45;;;4.72;;
78778;SDS011;68121;52.404;5.318;2023-10-13T04:32:37;9.20;;;4.28;;
78778;SDS011;68121;52.404;5.318;2023-10-13T04:35:31;7.70;;;3.92;;
78778;SDS011;68121;52.404;5.318;2023-10-13T04:38:02;6.75;;;3.78;;
78778;SDS011;68121;52.404;5.318;2023-10-13T04:40:43;7.60;;;4.13;;
78778;SDS011;68121;52.404;5.318;2023-10-13T04:43:24;7.22;;;4.47;;
78778;SDS011;68121;52.404;5.318;2023-10-13T04:46:19;5.32;;;3.70;;
78778;SDS011;68121;52.404;5.318;2023-10-13T04:49:01;6.03;;;3.42;;
78778;SDS011;68121;52.404;5.318;2023-10-13T04:51:36;6.97;;;3.28;;
78778;SDS011;68121;52.404;5.318;2023-10-13T04:54:26;4.60;;;3.40;;
78778;SDS011;68121;52.404;5.318;2023-10-13T04:56:59;6.55;;;3.53;;
78778;SDS011;68121;52.404;5.318;2023-10-13T04:59:46;5.35;;;3.38;;
78778;SDS011;68121;52.404;5.318;2023-10-13T05:02:31;5.68;;;3.03;;
78778;SDS011;68121;52.404;5.318;2023-10-13T05:05:04;5.55;;;2.70;;
78778;SDS011;68121;52.404;5.318;2023-10-13T05:07:40;3.92;;;3.28;;
78778;SDS011;68121;52.404;5.318;2023-10-13T05:10:25;6.82;;;3.75;;
78778;SDS011;68121;52.404;5.318;2023-10-13T05:13:09;4.65;;;2.95;;
78778;SDS011;68121;52.404;5.318;2023-10-13T05:15:54;2.80;;;2.13;;
78778;SDS011;68121;52.404;5.318;2023-10-13T05:18:38;4.78;;;2.20;;
78778;SDS011;68121;52.404;5.318;2023-10-13T05:21:23;4.25;;;2.17;;
78778;SDS011;68121;52.404;5.318;2023-10-13T05:24:07;4.55;;;2.08;;
78778;SDS011;68121;52.404;5.318;2023-10-13T05:26:52;3.33;;;1.98;;
78778;SDS011;68121;52.404;5.318;2023-10-13T05:29:38;5.05;;;2.05;;
78778;SDS011;68121;52.404;5.318;2023-10-13T05:32:24;4.20;;;2.28;;
78778;SDS011;68121;52.404;5.318;2023-10-13T05:35:09;3.38;;;2.50;;
78778;SDS011;68121;52.404;5.318;2023-10-13T05:37:54;5.47;;;2.40;;
78778;SDS011;68121;52.404;5.318;2023-10-13T05:40:38;2.90;;;1.95;;
78778;SDS011;68121;52.404;5.318;2023-10-13T05:43:23;4.68;;;2.42;;
78778;SDS011;68121;52.404;5.318;2023-10-13T05:46:07;4.30;;;2.20;;
78778;SDS011;68121;52.404;5.318;2023-10-13T05:49:01;6.57;;;2.10;;
78778;SDS011;68121;52.404;5.318;2023-10-13T05:51:31;4.65;;;2.17;;
78778;SDS011;68121;52.404;5.318;2023-10-13T05:54:00;4.55;;;2.20;;
78778;SDS011;68121;52.404;5.318;2023-10-13T05:56:39;4.72;;;2.20;;
78778;SDS011;68121;52.404;5.318;2023-10-13T05:59:24;5.32;;;2.85;;
78778;SDS011;68121;52.404;5.318;2023-10-13T06:02:09;5.15;;;2.42;;
78778;SDS011;68121;52.404;5.318;2023-10-13T06:04:55;4.82;;;2.67;;
78778;SDS011;68121;52.404;5.318;2023-10-13T06:07:40;5.65;;;2.72;;
78778;SDS011;68121;52.404;5.318;2023-10-13T06:10:25;5.38;;;2.58;;
78778;SDS011;68121;52.404;5.318;2023-10-13T06:13:10;7.75;;;2.50;;
78778;SDS011;68121;52.404;5.318;2023-10-13T06:15:54;7.43;;;2.38;;
78778;SDS011;68121;52.404;5.318;2023-10-13T06:18:38;5.43;;;2.50;;
78778;SDS011;68121;52.404;5.318;2023-10-13T06:21:23;8.50;;;2.63;;
78778;SDS011;68121;52.404;5.318;2023-10-13T06:24:07;8.57;;;2.20;;
78778;SDS011;68121;52.404;5.318;2023-10-13T06:26:52;6.18;;;2.65;;
78778;SDS011;68121;52.404;5.318;2023-10-13T06:29:37;5.90;;;2.53;;
78778;SDS011;68121;52.404;5.318;2023-10-13T06:32:03;6.03;;;2.90;;
78778;SDS011;68121;52.404;5.318;2023-10-13T06:34:36;8.13;;;3.25;;
78778;SDS011;68121;52.404;5.318;2023-10-13T06:37:16;5.53;;;2.33;;
78778;SDS011;68121;52.404;5.318;2023-10-13T06:39:50;8.55;;;2.70;;
78778;SDS011;68121;52.404;5.318;2023-10-13T06:42:18;5.10;;;2.80;;
78778;SDS011;68121;52.404;5.318;2023-10-13T06:44:45;7.85;;;2.63;;
78778;SDS011;68121;52.404;5.318;2023-10-13T06:47:12;7.88;;;2.50;;
78778;SDS011;68121;52.404;5.318;2023-10-13T06:49:39;4.95;;;1.92;;
78778;SDS011;68121;52.404;5.318;2023-10-13T06:52:09;8.45;;;2.72;;
78778;SDS011;68121;52.404;5.318;2023-10-13T06:54:36;5.82;;;2.80;;
78778;SDS011;68121;52.404;5.318;2023-10-13T06:57:05;6.20;;;2.42;;
78778;SDS011;68121;52.404;5.318;2023-10-13T07:02:05;7.50;;;2.33;;
78778;SDS011;68121;52.404;5.318;2023-10-13T07:04:33;8.98;;;2.72;;
78778;SDS011;68121;52.404;5.318;2023-10-13T07:06:59;8.50;;;3.10;;
78778;SDS011;68121;52.404;5.318;2023-10-13T07:12:00;7.05;;;2.67;;
78778;SDS011;68121;52.404;5.318;2023-10-13T07:14:28;6.93;;;2.67;;
78778;SDS011;68121;52.404;5.318;2023-10-13T07:16:57;4.68;;;2.80;;
78778;SDS011;68121;52.404;5.318;2023-10-13T07:19:29;9.18;;;3.15;;
78778;SDS011;68121;52.404;5.318;2023-10-13T07:21:56;12.25;;;2.72;;
78778;SDS011;68121;52.404;5.318;2023-10-13T07:24:29;7.85;;;3.05;;
78778;SDS011;68121;52.404;5.318;2023-10-13T07:26:58;9.27;;;3.22;;
78778;SDS011;68121;52.404;5.318;2023-10-13T07:29:31;7.72;;;2.85;;
78778;SDS011;68121;52.404;5.318;2023-10-13T07:32:01;6.75;;;3.13;;
78778;SDS011;68121;52.404;5.318;2023-10-13T07:34:28;5.97;;;3.28;;
78778;SDS011;68121;52.404;5.318;2023-10-13T07:36:58;6.72;;;3.08;;
78778;SDS011;68121;52.404;5.318;2023-10-13T07:39:28;12.18;;;3.88;;
78778;SDS011;68121;52.404;5.318;2023-10-13T07:41:59;5.53;;;3.85;;
78778;SDS011;68121;52.404;5.318;2023-10-13T07:44:29;7.97;;;4.38;;
78778;SDS011;68121;52.404;5.318;2023-10-13T07:47:02;9.90;;;4.30;;
78778;SDS011;68121;52.404;5.318;2023-10-13T07:49:34;7.65;;;4.50;;
78778;SDS011;68121;52.404;5.318;2023-10-13T07:52:11;11.50;;;4.65;;
78778;SDS011;68121;52.404;5.318;2023-10-13T07:54:47;8.85;;;4.80;;
78778;SDS011;68121;52.404;5.318;2023-10-13T07:57:32;8.38;;;4.80;;
78778;SDS011;68121;52.404;5.318;2023-10-13T07:59:58;6.70;;;4.05;;
78778;SDS011;68121;52.404;5.318;2023-10-13T08:02:37;7.03;;;4.53;;
78778;SDS011;68121;52.404;5.318;2023-10-13T08:05:17;8.30;;;4.50;;
78778;SDS011;68121;52.404;5.318;2023-10-13T08:08:05;7.82;;;3.72;;
78778;SDS011;68121;52.404;5.318;2023-10-13T08:10:40;11.88;;;4.38;;
78778;SDS011;68121;52.404;5.318;2023-10-13T08:13:08;7.80;;;3.65;;
78778;SDS011;68121;52.404;5.318;2023-10-13T08:15:44;7.32;;;3.78;;
78778;SDS011;68121;52.404;5.318;2023-10-13T08:18:16;10.52;;;4.43;;
78778;SDS011;68121;52.404;5.318;2023-10-13T08:20:58;7.22;;;3.58;;
78778;SDS011;68121;52.404;5.318;2023-10-13T08:23:31;8.20;;;3.50;;
78778;SDS011;68121;52.404;5.318;2023-10-13T08:26:25;7.10;;;3.08;;
78778;SDS011;68121;52.404;5.318;2023-10-13T08:28:56;5.45;;;3.55;;
78778;SDS011;68121;52.404;5.318;2023-10-13T08:31:43;11.00;;;3.67;;
78778;SDS011;68121;52.404;5.318;2023-10-13T08:34:15;5.75;;;2.88;;
78778;SDS011;68121;52.404;5.318;2023-10-13T08:36:48;9.48;;;3.40;;
78778;SDS011;68121;52.404;5.318;2023-10-13T08:39:14;7.28;;;3.45;;
78778;SDS011;68121;52.404;5.318;2023-10-13T08:42:07;11.30;;;3.55;;
78778;SDS011;68121;52.404;5.318;2023-10-13T08:44:39;11.43;;;3.78;;
78778;SDS011;68121;52.404;5.318;2023-10-13T08:47:14;10.52;;;3.30;;
78778;SDS011;68121;52.404;5.318;2023-10-13T08:49:50;10.32;;;3.50;;
78778;SDS011;68121;52.404;5.318;2023-10-13T08:52:18;8.48;;;3.53;;
78778;SDS011;68121;52.404;5.318;2023-10-13T08:55:05;8.02;;;3.00;;
78778;SDS011;68121;52.404;5.318;2023-10-13T08:57:51;11.20;;;3.45;;
78778;SDS011;68121;52.404;5.318;2023-10-13T09:00:19;8.70;;;3.13;;
78778;SDS011;68121;52.404;5.318;2023-10-13T09:03:14;9.18;;;3.13;;
78778;SDS011;68121;52.404;5.318;2023-10-13T09:06:03;7.65;;;2.75;;
78778;SDS011;68121;52.404;5.318;2023-10-13T09:08:32;7.43;;;2.85;;
78778;SDS011;68121;52.404;5.318;2023-10-13T09:11:09;9.75;;;3.20;;
78778;SDS011;68121;52.404;5.318;2023-10-13T09:13:37;7.28;;;3.10;;
78778;SDS011;68121;52.404;5.318;2023-10-13T09:16:13;8.15;;;2.78;;
78778;SDS011;68121;52.404;5.318;2023-10-13T09:19:02;6.80;;;3.50;;
78778;SDS011;68121;52.404;5.318;2023-10-13T09:21:38;6.93;;;3.03;;
78778;SDS011;68121;52.404;5.318;2023-10-13T09:24:10;9.07;;;2.90;;
78778;SDS011;68121;52.404;5.318;2023-10-13T09:27:03;7.70;;;3.00;;
78778;SDS011;68121;52.404;5.318;2023-10-13T09:29:30;7.05;;;2.72;;
78778;SDS011;68121;52.404;5.318;2023-10-13T09:32:04;5.50;;;2.83;;
78778;SDS011;68121;52.404;5.318;2023-10-13T09:34:37;10.95;;;2.75;;
78778;SDS011;68121;52.404;5.318;2023-10-13T09:37:06;7.28;;;2.45;;
78778;SDS011;68121;52.404;5.318;2023-10-13T09:39:32;9.02;;;2.75;;
78778;SDS011;68121;52.404;5.318;2023-10-13T09:42:13;6.88;;;2.72;;
78778;SDS011;68121;52.404;5.318;2023-10-13T09:44:41;8.85;;;2.60;;
78778;SDS011;68121;52.404;5.318;2023-10-13T09:47:15;12.38;;;3.22;;
78778;SDS011;68121;52.404;5.318;2023-10-13T09:49:50;6.47;;;2.92;;
78778;SDS011;68121;52.404;5.318;2023-10-13T09:52:28;8.13;;;2.53;;
78778;SDS011;68121;52.404;5.318;2023-10-13T09:55:19;8.65;;;2.60;;
78778;SDS011;68121;52.404;5.318;2023-10-13T09:57:51;8.95;;;3.30;;
78778;SDS011;68121;52.404;5.318;2023-10-13T10:00:36;9.65;;;3.25;;
78778;SDS011;68121;52.404;5.318;2023-10-13T10:03:24;7.93;;;2.78;;
78778;SDS011;68121;52.404;5.318;2023-10-13T10:06:05;9.93;;;2.75;;
78778;SDS011;68121;52.404;5.318;2023-10-13T10:08:42;5.95;;;2.65;;
78778;SDS011;68121;52.404;5.318;2023-10-13T10:11:22;10.45;;;3.38;;
78778;SDS011;68121;52.404;5.318;2023-10-13T10:19:33;11.88;;;3.03;;
78778;SDS011;68121;52.404;5.318;2023-10-13T10:22:12;8.27;;;3.45;;
78778;SDS011;68121;52.404;5.318;2023-10-13T10:24:55;8.82;;;2.83;;
78778;SDS011;68121;52.404;5.318;2023-10-13T10:27:59;7.40;;;2.97;;
78778;SDS011;68121;52.404;5.318;2023-10-13T10:30:36;11.98;;;3.42;;
78778;SDS011;68121;52.404;5.318;2023-10-13T10:33:08;11.32;;;3.88;;
78778;SDS011;68121;52.404;5.318;2023-10-13T10:35:39;9.70;;;3.42;;
78778;SDS011;68121;52.404;5.318;2023-10-13T10:40:54;11.05;;;3.20;;
78778;SDS011;68121;52.404;5.318;2023-10-13T10:43:27;9.50;;;3.58;;
78778;SDS011;68121;52.404;5.318;2023-10-13T10:46:15;8.85;;;2.88;;
78778;SDS011;68121;52.404;5.318;2023-10-13T10:48:42;7.30;;;2.90;;
78778;SDS011;68121;52.404;5.318;2023-10-13T10:51:12;12.93;;;3.63;;
78778;SDS011;68121;52.404;5.318;2023-10-13T10:53:49;11.45;;;3.17;;
78778;SDS011;68121;52.404;5.318;2023-10-13T10:56:25;6.80;;;3.20;;
78778;SDS011;68121;52.404;5.318;2023-10-13T10:59:02;5.65;;;2.60;;
78778;SDS011;68121;52.404;5.318;2023-10-13T11:01:42;5.90;;;2.42;;
78778;SDS011;68121;52.404;5.318;2023-10-13T11:06:53;8.90;;;3.28;;
78778;SDS011;68121;52.404;5.318;2023-10-13T11:09:24;7.82;;;3.03;;
78778;SDS011;68121;52.404;5.318;2023-10-13T11:12:18;5.60;;;2.75;;
78778;SDS011;68121;52.404;5.318;2023-10-13T11:15:04;8.48;;;3.08;;
78778;SDS011;68121;52.404;5.318;2023-10-13T11:17:39;11.00;;;2.78;;
78778;SDS011;68121;52.404;5.318;2023-10-13T11:20:13;7.53;;;3.42;;
78778;SDS011;68121;52.404;5.318;2023-10-13T11:22:59;8.18;;;2.53;;
78778;SDS011;68121;52.404;5.318;2023-10-13T11:25:26;6.60;;;4.05;;
78778;SDS011;68121;52.404;5.318;2023-10-13T11:27:58;9.95;;;3.53;;
78778;SDS011;68121;52.404;5.318;2023-10-13T11:30:25;7.63;;;3.70;;
78778;SDS011;68121;52.404;5.318;2023-10-13T11:33:07;8.30;;;3.40;;
78778;SDS011;68121;52.404;5.318;2023-10-13T11:35:35;9.98;;;3.70;;
78778;SDS011;68121;52.404;5.318;2023-10-13T11:38:34;13.75;;;3.63;;
78778;SDS011;68121;52.404;5.318;2023-10-13T11:41:06;6.07;;;2.95;;
78778;SDS011;68121;52.404;5.318;2023-10-13T11:43:39;11.60;;;3.38;;
78778;SDS011;68121;52.404;5.318;2023-10-13T11:46:15;9.63;;;3.47;;
78778;SDS011;68121;52.404;5.318;2023-10-13T11:48:57;7.80;;;3.38;;
78778;SDS011;68121;52.404;5.318;2023-10-13T11:51:30;8.07;;;2.90;;
78778;SDS011;68121;52.404;5.318;2023-10-13T11:53:58;10.80;;;3.08;;
78778;SDS011;68121;52.404;5.318;2023-10-13T11:56:24;9.27;;;3.25;;
78778;SDS011;68121;52.404;5.318;2023-10-13T11:58:50;9.10;;;2.85;;
78778;SDS011;68121;52.404;5.318;2023-10-13T12:01:17;12.10;;;3.35;;
78778;SDS011;68121;52.404;5.318;2023-10-13T12:03:44;6.05;;;2.65;;
78778;SDS011;68121;52.404;5.318;2023-10-13T12:06:30;9.10;;;2.97;;
78778;SDS011;68121;52.404;5.318;2023-10-13T12:09:03;9.20;;;3.20;;
78778;SDS011;68121;52.404;5.318;2023-10-13T12:11:43;8.45;;;4.43;;
78778;SDS011;68121;52.404;5.318;2023-10-13T12:14:16;8.27;;;3.03;;
78778;SDS011;68121;52.404;5.318;2023-10-13T12:16:49;9.75;;;3.63;;
78778;SDS011;68121;52.404;5.318;2023-10-13T12:19:21;8.30;;;3.13;;
78778;SDS011;68121;52.404;5.318;2023-10-13T12:21:52;8.50;;;2.88;;
78778;SDS011;68121;52.404;5.318;2023-10-13T12:24:20;11.38;;;3.92;;
78778;SDS011;68121;52.404;5.318;2023-10-13T12:27:10;13.68;;;3.78;;
78778;SDS011;68121;52.404;5.318;2023-10-13T12:29:48;12.02;;;3.40;;
78778;SDS011;68121;52.404;5.318;2023-10-13T12:32:15;7.03;;;3.40;;
78778;SDS011;68121;52.404;5.318;2023-10-13T12:34:47;9.68;;;3.60;;
78778;SDS011;68121;52.404;5.318;2023-10-13T12:37:29;10.68;;;3.47;;
78778;SDS011;68121;52.404;5.318;2023-10-13T12:40:09;14.45;;;3.83;;
78778;SDS011;68121;52.404;5.318;2023-10-13T12:42:54;9.93;;;3.17;;
78778;SDS011;68121;52.404;5.318;2023-10-13T12:45:42;9.45;;;3.40;;
78778;SDS011;68121;52.404;5.318;2023-10-13T12:48:28;9.18;;;3.45;;
78778;SDS011;68121;52.404;5.318;2023-10-13T12:51:13;5.85;;;3.10;;
78778;SDS011;68121;52.404;5.318;2023-10-13T12:54:05;9.20;;;3.35;;
78778;SDS011;68121;52.404;5.318;2023-10-13T12:56:43;8.68;;;3.55;;
78778;SDS011;68121;52.404;5.318;2023-10-13T12:59:09;8.85;;;3.75;;
78778;SDS011;68121;52.404;5.318;2023-10-13T13:01:39;15.45;;;4.03;;
78778;SDS011;68121;52.404;5.318;2023-10-13T13:04:10;9.60;;;3.80;;
78778;SDS011;68121;52.404;5.318;2023-10-13T13:06:46;8.80;;;3.28;;
78778;SDS011;68121;52.404;5.318;2023-10-13T13:09:13;10.75;;;3.67;;
78778;SDS011;68121;52.404;5.318;2023-10-13T13:11:39;12.85;;;3.97;;
78778;SDS011;68121;52.404;5.318;2023-10-13T13:14:08;10.63;;;3.92;;
78778;SDS011;68121;52.404;5.318;2023-10-13T13:16:35;14.13;;;3.78;;
78778;SDS011;68121;52.404;5.318;2023-10-13T13:19:04;12.90;;;4.05;;
78778;SDS011;68121;52.404;5.318;2023-10-13T13:21:36;9.13;;;3.60;;
78778;SDS011;68121;52.404;5.318;2023-10-13T13:24:03;11.32;;;3.90;;
78778;SDS011;68121;52.404;5.318;2023-10-13T13:26:30;11.88;;;3.97;;
78778;SDS011;68121;52.404;5.318;2023-10-13T13:28:56;14.82;;;5.05;;
78778;SDS011;68121;52.404;5.318;2023-10-13T13:31:23;8.98;;;3.75;;
78778;SDS011;68121;52.404;5.318;2023-10-13T13:33:57;8.73;;;3.65;;
78778;SDS011;68121;52.404;5.318;2023-10-13T13:36:23;7.53;;;3.65;;
78778;SDS011;68121;52.404;5.318;2023-10-13T13:38:49;11.20;;;3.70;;
78778;SDS011;68121;52.404;5.318;2023-10-13T13:41:17;6.75;;;3.75;;
78778;SDS011;68121;52.404;5.318;2023-10-13T13:43:44;10.82;;;4.57;;
78778;SDS011;68121;52.404;5.318;2023-10-13T13:46:24;9.88;;;3.75;;
78778;SDS011;68121;52.404;5.318;2023-10-13T13:48:53;11.32;;;4.00;;
78778;SDS011;68121;52.404;5.318;2023-10-13T13:51:32;7.97;;;3.40;;
78778;SDS011;68121;52.404;5.318;2023-10-13T13:53:59;11.38;;;3.80;;
78778;SDS011;68121;52.404;5.318;2023-10-13T13:56:25;11.50;;;3.85;;
78778;SDS011;68121;52.404;5.318;2023-10-13T13:58:54;10.63;;;4.22;;
78778;SDS011;68121;52.404;5.318;2023-10-13T14:01:32;6.85;;;3.35;;
78778;SDS011;68121;52.404;5.318;2023-10-13T14:04:00;9.63;;;3.90;;
78778;SDS011;68121;52.404;5.318;2023-10-13T14:06:32;9.90;;;4.03;;
78778;SDS011;68121;52.404;5.318;2023-10-13T14:09:00;12.18;;;4.50;;
78778;SDS011;68121;52.404;5.318;2023-10-13T14:11:29;9.02;;;4.03;;
78778;SDS011;68121;52.404;5.318;2023-10-13T14:14:12;15.27;;;4.85;;
78778;SDS011;68121;52.404;5.318;2023-10-13T14:16:54;10.35;;;4.47;;
78778;SDS011;68121;52.404;5.318;2023-10-13T14:19:41;10.25;;;4.13;;
78778;SDS011;68121;52.404;5.318;2023-10-13T14:22:09;12.63;;;4.63;;
78778;SDS011;68121;52.404;5.318;2023-10-13T14:24:37;12.88;;;4.85;;
78778;SDS011;68121;52.404;5.318;2023-10-13T14:27:13;14.10;;;5.60;;
78778;SDS011;68121;52.404;5.318;2023-10-13T14:29:43;11.25;;;4.45;;
78778;SDS011;68121;52.404;5.318;2023-10-13T14:32:09;8.98;;;4.65;;
78778;SDS011;68121;52.404;5.318;2023-10-13T14:34:40;15.60;;;4.35;;
78778;SDS011;68121;52.404;5.318;2023-10-13T14:37:07;13.30;;;4.63;;
78778;SDS011;68121;52.404;5.318;2023-10-13T14:39:39;12.88;;;4.97;;
78778;SDS011;68121;52.404;5.318;2023-10-13T14:42:06;9.02;;;4.22;;
78778;SDS011;68121;52.404;5.318;2023-10-13T14:44:32;10.10;;;4.75;;
78778;SDS011;68121;52.404;5.318;2023-10-13T14:46:59;11.88;;;3.83;;
78778;SDS011;68121;52.404;5.318;2023-10-13T14:49:26;12.40;;;4.97;;
78778;SDS011;68121;52.404;5.318;2023-10-13T14:51:52;11.68;;;5.10;;
78778;SDS011;68121;52.404;5.318;2023-10-13T14:54:21;10.98;;;4.40;;
78778;SDS011;68121;52.404;5.318;2023-10-13T14:57:02;16.38;;;4.70;;
78778;SDS011;68121;52.404;5.318;2023-10-13T14:59:29;13.85;;;4.30;;
78778;SDS011;68121;52.404;5.318;2023-10-13T15:02:04;8.77;;;4.35;;
78778;SDS011;68121;52.404;5.318;2023-10-13T15:04:30;11.43;;;3.83;;
78778;SDS011;68121;52.404;5.318;2023-10-13T15:07:00;9.00;;;4.65;;
78778;SDS011;68121;52.404;5.318;2023-10-13T15:11:57;7.03;;;2.83;;
78778;SDS011;68121;52.404;5.318;2023-10-13T15:14:23;8.15;;;2.85;;
78778;SDS011;68121;52.404;5.318;2023-10-13T15:16:50;7.80;;;2.75;;
78778;SDS011;68121;52.404;5.318;2023-10-13T15:19:17;5.15;;;2.25;;
78778;SDS011;68121;52.404;5.318;2023-10-13T15:21:43;5.72;;;2.75;;
78778;SDS011;68121;52.404;5.318;2023-10-13T15:24:14;5.43;;;1.95;;
78778;SDS011;68121;52.404;5.318;2023-10-13T15:26:45;5.53;;;1.38;;
78778;SDS011;68121;52.404;5.318;2023-10-13T15:29:15;5.22;;;2.03;;
78778;SDS011;68121;52.404;5.318;2023-10-13T15:31:50;6.05;;;2.08;;
78778;SDS011;68121;52.404;5.318;2023-10-13T15:34:26;5.35;;;1.80;;
78778;SDS011;68121;52.404;5.318;2023-10-13T15:36:52;4.97;;;1.50;;
78778;SDS011;68121;52.404;5.318;2023-10-13T15:39:21;6.57;;;2.33;;
78778;SDS011;68121;52.404;5.318;2023-10-13T15:41:54;8.88;;;2.08;;
78778;SDS011;68121;52.404;5.318;2023-10-13T15:44:24;5.40;;;2.22;;
78778;SDS011;68121;52.404;5.318;2023-10-13T15:46:54;7.55;;;2.20;;
78778;SDS011;68121;52.404;5.318;2023-10-13T15:49:21;6.25;;;2.67;;